Terminal Aerodrome Forecast
Issued by NWS Wakefield, VA

Home | Current Version | Previous Version | Text Only | Print | Product List | Glossary On
Versions: 1 2 3 4 5 6 7 8 9 10 11 12 13 14
525
FTUS41 KAKQ 280536
TAFECG
TAF
KECG 280536Z 2806/2906 03010KT P6SM BKN012
     FM280900 03006KT P6SM BKN008
     FM281400 05009KT P6SM BKN025
     FM281600 05011KT P6SM BKN040=

USA.gov is the U.S. government's official web portal to all federal, state and local government web resources and services.